Hlavní strana
METAR-TAF:

METAR-TAF

Letiště :

Decatur, Illinois, Spojené státy americké

zeměpisná šířka: 39-50-04N, zeměpisná délka: 088-51-56W, výška: 208 m

Aktuální stav počasí

Zpráva byla vytvořena před 36 minutami, v 14:54 UTC
Severozápadní vítr 7 kt
Teplota 11°C
Vlhkost vzduchu 50%
Tlak 1024 hPa
Jasno

METAR: KDEC 301454Z 31007KT CLR 11/01 A3023 RMK AO2 SLP237 T01060006 53012 $

Čas: 10:30 (15:30 UTC)

Předpověď počasí

Zpráva byla vytvořena před 4 hodinami a 6 minutami, v 11:24 UTC
Předpověď platná od 30 v 12 UTC do 31 v 12 UTC
Západoseverozápadní vítr 9 kt
Viditelnost: 10 km
Jasno
Od 30 v 1500 UTC
Severozápadní vítr 10 kt
Viditelnost: 10 km
Jasno
Od 31 v 0000 UTC
Severní vítr 6 kt
Viditelnost: 10 km
Skoro jasno ve výšce 25000 ft
Od 31 v 0300 UTC
Severovýchodní vítr 4 kt
Viditelnost: 10 km
Polojasno ve výšce 25000 ft

TAF: KDEC 301124Z 3012/3112 29009KT P6SM SKC FM301500 31010KT P6SM SKC FM310000 36006KT P6SM FEW250 FM310300 04004KT P6SM SCT250

Stav a předpovědi počasí z více než 4 000 letišť (zprávy METAR a TAF).

Červené a žluté tečky na mapě představují dostupné meteorologické stanice.

Když kurzor umístíte na tečku, zobrazí se název stanice.

Pak kliknutím zobrazíte stav a předpověď počasí.

Chcete-li změnit mapu, kliknutím na zelené tlačítko se znaménkem +mapu přiblížíte, kliknutím na zelené tlačítko se znaménkem – mapu oddálíte a kliknutím na zelené šipky přejdete na sousední mapy.


METAR-TAF: